createdAt,value
2022-09-23T00:01:07.521Z,8.70
2022-09-23T00:03:53.992Z,8.44
2022-09-23T00:06:40.881Z,9.10
2022-09-23T00:09:27.269Z,9.17
2022-09-23T00:12:13.635Z,8.96
2022-09-23T00:14:59.947Z,9.01
2022-09-23T00:17:46.536Z,8.49
2022-09-23T00:20:36.658Z,8.88
2022-09-23T00:23:22.900Z,8.75
2022-09-23T00:26:15.887Z,8.66
2022-09-23T00:29:01.850Z,8.59
2022-09-23T00:31:48.113Z,8.64
2022-09-23T00:34:34.049Z,8.63
2022-09-23T00:37:20.990Z,8.74
2022-09-23T00:40:08.733Z,8.63
2022-09-23T00:42:55.179Z,8.45
2022-09-23T00:45:47.068Z,8.61
2022-09-23T00:48:33.398Z,8.45
2022-09-23T00:51:22.503Z,8.34
2022-09-23T00:54:09.700Z,8.46
2022-09-23T00:56:56.557Z,7.45
2022-09-23T00:59:43.598Z,7.99
2022-09-23T01:02:29.942Z,8.42
2022-09-23T01:05:17.207Z,8.61
2022-09-23T01:08:04.056Z,8.55
2022-09-23T01:11:03.434Z,8.30
2022-09-23T01:14:11.121Z,8.42
2022-09-23T01:17:33.314Z,8.30
2022-09-23T01:20:37.261Z,8.53
2022-09-23T01:23:56.453Z,8.48
2022-09-23T01:26:48.180Z,8.57
2022-09-23T01:30:23.679Z,8.39
2022-09-23T01:33:37.323Z,8.26
2022-09-23T01:36:40.177Z,8.19
2022-09-23T01:39:38.779Z,7.87
2022-09-23T01:42:37.384Z,8.24
2022-09-23T01:45:44.727Z,8.27
2022-09-23T01:49:00.791Z,8.15
2022-09-23T01:51:51.390Z,8.07
2022-09-23T01:54:45.438Z,8.16
2022-09-23T01:57:40.533Z,8.18
2022-09-23T02:00:30.300Z,8.10
2022-09-23T02:03:26.859Z,8.05
2022-09-23T02:06:21.790Z,7.87
2022-09-23T02:09:12.708Z,7.84
2022-09-23T02:12:05.699Z,8.08
2022-09-23T02:15:04.163Z,7.94
2022-09-23T02:17:52.609Z,7.82
2022-09-23T02:20:42.059Z,7.84
2022-09-23T02:23:32.514Z,7.74
2022-09-23T02:26:25.428Z,7.77
2022-09-23T02:29:24.848Z,7.82
2022-09-23T02:32:30.783Z,7.88
2022-09-23T02:35:33.240Z,7.94
2022-09-23T02:38:40.478Z,7.80
2022-09-23T02:41:30.486Z,7.81
2022-09-23T02:44:18.697Z,7.68
2022-09-23T02:47:05.169Z,7.63
2022-09-23T02:49:52.032Z,7.44
2022-09-23T02:52:38.750Z,7.61
2022-09-23T02:55:31.287Z,7.71
2022-09-23T02:58:17.669Z,7.58
2022-09-23T03:01:07.366Z,7.59
2022-09-23T03:03:59.759Z,7.55
2022-09-23T03:07:01.583Z,7.62
2022-09-23T03:09:51.667Z,7.71
2022-09-23T03:12:51.522Z,7.61
2022-09-23T03:16:36.327Z,7.51
2022-09-23T03:19:32.937Z,7.52
2022-09-23T03:22:30.374Z,7.62
2022-09-23T03:25:19.155Z,7.59
2022-09-23T03:28:07.732Z,7.55
2022-09-23T03:30:54.475Z,7.35
2022-09-23T03:33:48.244Z,7.14
2022-09-23T03:36:51.550Z,4.72
2022-09-23T03:39:42.053Z,6.18
2022-09-23T03:42:30.914Z,6.49
2022-09-23T03:45:23.243Z,6.48
2022-09-23T03:48:09.665Z,5.29
2022-09-23T03:50:56.247Z,6.40
2022-09-23T03:53:42.683Z,7.09
2022-09-23T03:56:28.813Z,7.39
2022-09-23T03:59:16.121Z,7.39
2022-09-23T04:02:02.737Z,7.45
2022-09-23T04:04:49.084Z,7.48
2022-09-23T04:07:35.082Z,7.43
2022-09-23T04:10:21.203Z,7.41
2022-09-23T04:13:07.094Z,7.39
2022-09-23T04:15:53.453Z,7.35
2022-09-23T04:18:39.191Z,7.43
2022-09-23T04:21:25.738Z,7.41
2022-09-23T04:24:12.264Z,7.44
2022-09-23T04:26:59.278Z,7.37
2022-09-23T04:29:45.509Z,7.32
2022-09-23T04:32:31.847Z,7.40
2022-09-23T04:35:17.649Z,7.36
2022-09-23T04:38:04.473Z,7.12
2022-09-23T04:40:50.772Z,7.19
2022-09-23T04:43:37.231Z,7.46
2022-09-23T04:46:23.703Z,7.31
2022-09-23T04:49:10.128Z,7.30
2022-09-23T04:51:56.431Z,6.99
2022-09-23T04:54:42.982Z,7.28
2022-09-23T04:57:29.868Z,7.32
2022-09-23T05:00:16.563Z,6.60
2022-09-23T05:03:02.613Z,5.10
2022-09-23T05:05:48.962Z,5.01
2022-09-23T05:08:35.799Z,4.53
2022-09-23T05:11:23.516Z,4.77
2022-09-23T05:14:09.993Z,4.59
2022-09-23T05:16:56.315Z,4.76
2022-09-23T05:19:42.547Z,5.39
2022-09-23T05:22:30.302Z,4.38
2022-09-23T05:25:16.684Z,4.77
2022-09-23T05:28:03.074Z,4.92
2022-09-23T05:30:48.942Z,4.31
2022-09-23T05:33:36.475Z,5.06
2022-09-23T05:36:23.523Z,4.63
2022-09-23T05:39:10.065Z,5.25
2022-09-23T05:41:56.708Z,5.51
2022-09-23T05:44:43.233Z,5.05
2022-09-23T05:47:29.387Z,5.91
2022-09-23T05:50:16.210Z,5.48
2022-09-23T05:53:02.771Z,6.54
2022-09-23T05:55:48.963Z,7.02
2022-09-23T05:58:35.550Z,7.09
2022-09-23T06:01:27.981Z,7.63
2022-09-23T06:04:14.469Z,7.24
2022-09-23T06:07:03.457Z,6.26
2022-09-23T06:09:50.598Z,5.97
2022-09-23T06:12:36.973Z,6.69
2022-09-23T06:15:23.284Z,6.62
2022-09-23T06:18:11.389Z,6.63
2022-09-23T06:21:01.543Z,7.06
2022-09-23T06:23:47.914Z,7.03
2022-09-23T06:26:35.622Z,7.24
2022-09-23T06:29:21.975Z,6.95
2022-09-23T06:32:08.453Z,6.87
2022-09-23T06:34:54.762Z,7.27
2022-09-23T06:37:41.097Z,7.50
2022-09-23T06:40:27.119Z,7.89
2022-09-23T06:43:13.238Z,8.21
2022-09-23T06:46:00.673Z,8.38
2022-09-23T06:48:47.291Z,9.17
2022-09-23T06:51:33.818Z,8.92
2022-09-23T06:54:20.387Z,9.71
2022-09-23T06:57:06.632Z,10.16
2022-09-23T06:59:52.897Z,9.91
2022-09-23T07:02:42.246Z,10.00
2022-09-23T07:05:28.686Z,10.50
2022-09-23T07:08:15.142Z,10.62
2022-09-23T07:11:04.575Z,10.91
2022-09-23T07:13:50.957Z,11.16
2022-09-23T07:16:37.499Z,10.99
2022-09-23T07:19:24.402Z,11.37
2022-09-23T07:22:10.818Z,11.44
2022-09-23T07:24:57.200Z,11.86
2022-09-23T07:27:43.317Z,11.36
2022-09-23T07:30:29.721Z,11.35
2022-09-23T07:33:29.284Z,11.79
2022-09-23T07:36:19.005Z,12.28
2022-09-23T07:39:05.880Z,12.27
2022-09-23T07:41:52.337Z,12.33
2022-09-23T07:44:39.004Z,12.39
2022-09-23T07:47:25.114Z,12.42
2022-09-23T07:50:11.677Z,12.68
2022-09-23T07:52:57.638Z,13.11
2022-09-23T07:55:52.098Z,13.33
2022-09-23T07:58:38.064Z,12.67
2022-09-23T08:01:24.417Z,13.16
2022-09-23T08:04:17.130Z,14.13
2022-09-23T08:07:04.781Z,13.77
2022-09-23T08:09:51.079Z,14.11
2022-09-23T08:12:36.818Z,14.01
2022-09-23T08:15:23.173Z,13.70
2022-09-23T08:18:09.312Z,13.68
2022-09-23T08:20:55.720Z,14.23
2022-09-23T08:23:41.606Z,14.30
2022-09-23T08:26:28.518Z,14.49
2022-09-23T08:29:15.211Z,14.72
2022-09-23T08:32:01.347Z,14.97
2022-09-23T08:34:47.521Z,14.43
2022-09-23T08:37:33.757Z,14.99
2022-09-23T08:40:19.475Z,14.92
2022-09-23T08:43:07.179Z,14.84
2022-09-23T08:45:53.647Z,15.24
2022-09-23T08:48:42.698Z,15.51
2022-09-23T08:51:36.518Z,16.13
2022-09-23T08:54:23.312Z,15.89
2022-09-23T08:57:10.288Z,15.25
2022-09-23T08:59:56.393Z,15.85
2022-09-23T09:03:20.107Z,16.23
2022-09-23T09:07:24.493Z,16.10
2022-09-23T09:10:19.487Z,16.93
2022-09-23T09:13:09.615Z,16.81
2022-09-23T09:16:09.249Z,17.53
2022-09-23T09:18:55.895Z,17.88
2022-09-23T09:21:42.592Z,17.80
2022-09-23T09:24:31.213Z,18.60
2022-09-23T09:27:17.559Z,18.47
2022-09-23T09:30:04.003Z,17.82
2022-09-23T09:33:17.400Z,18.03
2022-09-23T09:36:38.733Z,17.56
2022-09-23T09:39:27.905Z,18.97
2022-09-23T09:42:18.692Z,16.85
2022-09-23T09:45:06.360Z,17.62
2022-09-23T09:48:06.060Z,18.14
2022-09-23T09:50:52.663Z,17.68
2022-09-23T09:53:38.631Z,17.77
2022-09-23T09:56:27.335Z,16.97
2022-09-23T09:59:17.193Z,18.82
2022-09-23T10:02:34.157Z,20.02
2022-09-23T10:05:28.504Z,21.23
2022-09-23T10:08:26.052Z,21.28
2022-09-23T10:11:19.085Z,21.99
2022-09-23T10:14:18.375Z,22.01
2022-09-23T10:17:06.772Z,20.14
2022-09-23T10:20:00.995Z,21.05
2022-09-23T10:23:09.879Z,21.86
2022-09-23T10:26:04.281Z,21.79
2022-09-23T10:28:52.784Z,22.37
2022-09-23T10:31:39.387Z,22.91
2022-09-23T10:34:27.446Z,22.55
2022-09-23T10:37:21.506Z,21.79
2022-09-23T10:40:49.323Z,21.97
2022-09-23T10:44:16.902Z,21.82
2022-09-23T10:47:06.351Z,21.70
2022-09-23T10:50:04.224Z,21.79
2022-09-23T10:53:15.481Z,20.63
2022-09-23T10:56:36.318Z,20.43
2022-09-23T10:59:32.871Z,19.92
2022-09-23T11:02:40.586Z,18.90
2022-09-23T11:05:32.828Z,18.10
2022-09-23T11:08:27.941Z,19.38
2022-09-23T11:11:43.880Z,19.39
2022-09-23T11:14:55.196Z,19.58
2022-09-23T11:17:47.871Z,18.61
2022-09-23T11:20:45.538Z,17.97
2022-09-23T11:24:28.046Z,18.29
2022-09-23T11:27:52.520Z,17.85
2022-09-23T11:31:11.474Z,18.24
2022-09-23T11:34:40.584Z,17.95
2022-09-23T11:37:35.326Z,18.96
2022-09-23T11:40:31.358Z,19.03
2022-09-23T11:43:25.448Z,19.43
2022-09-23T11:46:23.951Z,19.30
2022-09-23T11:49:28.165Z,19.68
2022-09-23T11:52:19.745Z,19.67
2022-09-23T11:55:22.792Z,19.16
2022-09-23T11:58:25.078Z,18.14
2022-09-23T12:01:35.471Z,18.34
2022-09-23T12:04:31.279Z,19.22
2022-09-23T12:07:20.851Z,18.73
2022-09-23T12:10:08.808Z,19.05
2022-09-23T12:13:32.802Z,19.65
2022-09-23T12:16:53.828Z,19.80
2022-09-23T12:20:05.771Z,19.64
2022-09-23T12:23:04.632Z,19.53
2022-09-23T12:26:04.750Z,20.06
2022-09-23T12:28:54.946Z,20.84
2022-09-23T12:31:43.081Z,21.45
2022-09-23T12:34:41.409Z,21.63
2022-09-23T12:37:38.069Z,22.08
2022-09-23T12:40:45.132Z,22.88
2022-09-23T12:43:37.201Z,22.78
2022-09-23T12:46:25.766Z,22.02
2022-09-23T12:49:28.943Z,22.44
2022-09-23T12:52:18.648Z,23.03
2022-09-23T12:55:34.175Z,23.51
2022-09-23T12:58:58.190Z,23.34
2022-09-23T13:01:44.769Z,23.61
2022-09-23T13:04:53.097Z,22.95
2022-09-23T13:07:44.492Z,21.90
2022-09-23T13:10:39.877Z,23.43
2022-09-23T13:13:31.863Z,23.42
2022-09-23T13:16:34.556Z,23.04
2022-09-23T13:19:26.964Z,21.71
2022-09-23T13:22:13.610Z,19.76
2022-09-23T13:25:01.675Z,20.21
2022-09-23T13:27:50.129Z,19.98
2022-09-23T13:30:36.171Z,19.56
2022-09-23T13:33:27.512Z,19.42
2022-09-23T13:36:16.125Z,17.92
2022-09-23T13:39:21.683Z,18.68
2022-09-23T13:42:11.462Z,19.58
2022-09-23T13:44:59.100Z,19.89
2022-09-23T13:47:47.688Z,19.17
2022-09-23T13:50:36.603Z,18.08
2022-09-23T13:53:30.529Z,17.94
2022-09-23T13:56:17.225Z,18.74
2022-09-23T13:59:21.626Z,19.52
2022-09-23T14:02:13.782Z,19.97
2022-09-23T14:05:12.575Z,19.12
2022-09-23T14:07:59.663Z,17.95
2022-09-23T14:10:46.915Z,18.54
2022-09-23T14:13:41.865Z,17.97
2022-09-23T14:16:28.388Z,18.49
2022-09-23T14:19:18.336Z,17.56
2022-09-23T14:22:09.259Z,17.02
2022-09-23T14:24:59.496Z,17.20
2022-09-23T14:27:47.205Z,17.63
2022-09-23T14:30:33.497Z,16.57
2022-09-23T14:33:26.628Z,17.06
2022-09-23T14:36:34.879Z,16.96
2022-09-23T14:39:21.566Z,16.15
2022-09-23T14:42:08.074Z,16.36
2022-09-23T14:44:54.596Z,16.86
2022-09-23T14:47:44.449Z,17.63
2022-09-23T14:50:37.000Z,17.96
2022-09-23T14:53:23.043Z,18.35
2022-09-23T14:56:12.189Z,17.86
2022-09-23T14:59:00.092Z,18.78
2022-09-23T15:01:46.756Z,18.63
2022-09-23T15:04:32.903Z,19.30
2022-09-23T15:07:20.722Z,19.81
2022-09-23T15:10:09.815Z,20.62
2022-09-23T15:13:12.897Z,19.78
2022-09-23T15:16:01.830Z,19.50
2022-09-23T15:18:57.781Z,20.44
2022-09-23T15:21:45.057Z,19.39
2022-09-23T15:24:43.200Z,18.11
2022-09-23T15:27:31.703Z,18.54
2022-09-23T15:30:19.919Z,18.58
2022-09-23T15:33:06.481Z,19.41
2022-09-23T15:35:52.962Z,18.54
2022-09-23T15:38:43.002Z,18.37
2022-09-23T15:41:30.053Z,18.82
2022-09-23T15:44:18.736Z,18.51
2022-09-23T15:47:05.354Z,18.77
2022-09-23T15:49:51.641Z,19.59
2022-09-23T15:52:38.045Z,20.41
2022-09-23T15:55:24.231Z,20.83
2022-09-23T15:58:11.002Z,20.10
2022-09-23T16:00:57.422Z,20.35
2022-09-23T16:03:43.581Z,21.41
2022-09-23T16:06:29.992Z,21.83
2022-09-23T16:09:16.375Z,21.51
2022-09-23T16:12:03.281Z,20.67
2022-09-23T16:14:49.520Z,21.82
2022-09-23T16:17:36.656Z,22.35
2022-09-23T16:20:23.598Z,22.55
2022-09-23T16:23:37.697Z,22.76
2022-09-23T16:26:27.645Z,22.67
2022-09-23T16:29:13.332Z,22.52
2022-09-23T16:32:01.054Z,22.20
2022-09-23T16:34:46.801Z,21.68
2022-09-23T16:37:33.248Z,21.36
2022-09-23T16:40:20.639Z,20.89
2022-09-23T16:43:08.072Z,20.23
2022-09-23T16:45:54.628Z,20.10
2022-09-23T16:48:40.999Z,19.76
2022-09-23T16:51:28.759Z,19.13
2022-09-23T16:54:17.365Z,18.87
2022-09-23T16:57:03.462Z,18.34
2022-09-23T17:00:08.519Z,17.82
2022-09-23T17:03:13.496Z,17.92
2022-09-23T17:06:02.438Z,18.03
2022-09-23T17:08:50.190Z,17.73
2022-09-23T17:11:38.156Z,17.79
2022-09-23T17:14:24.594Z,17.51
2022-09-23T17:17:10.673Z,17.20
2022-09-23T17:19:56.517Z,16.80
2022-09-23T17:22:43.000Z,16.30
2022-09-23T17:25:30.126Z,16.43
2022-09-23T17:28:16.973Z,16.34
2022-09-23T17:31:03.800Z,16.42
2022-09-23T17:33:50.374Z,16.24
2022-09-23T17:36:39.549Z,16.03
2022-09-23T17:39:25.818Z,16.00
2022-09-23T17:42:11.773Z,15.65
2022-09-23T17:44:59.387Z,15.42
2022-09-23T17:47:52.245Z,15.60
2022-09-23T17:50:38.642Z,15.55
2022-09-23T17:53:24.781Z,15.19
2022-09-23T17:56:17.032Z,15.06
2022-09-23T17:59:03.085Z,14.93
2022-09-23T18:01:49.419Z,14.71
2022-09-23T18:04:35.536Z,14.57
2022-09-23T18:07:21.574Z,14.44
2022-09-23T18:10:08.677Z,14.40
2022-09-23T18:12:55.047Z,14.25
2022-09-23T18:15:41.503Z,13.99
2022-09-23T18:18:27.813Z,13.81
2022-09-23T18:21:14.071Z,13.59
2022-09-23T18:24:21.738Z,13.68
2022-09-23T18:27:08.395Z,13.58
2022-09-23T18:29:54.308Z,13.60
2022-09-23T18:32:41.813Z,13.63
2022-09-23T18:35:28.549Z,13.53
2022-09-23T18:38:15.521Z,13.57
2022-09-23T18:41:02.045Z,13.49
2022-09-23T18:43:49.012Z,13.47
2022-09-23T18:46:35.251Z,13.46
2022-09-23T18:49:40.523Z,13.37
2022-09-23T18:52:27.119Z,13.14
2022-09-23T18:55:13.288Z,13.05
2022-09-23T18:57:59.758Z,12.92
2022-09-23T19:00:47.994Z,12.96
2022-09-23T19:03:35.650Z,12.96
2022-09-23T19:06:22.007Z,12.73
2022-09-23T19:09:08.940Z,12.83
2022-09-23T19:11:55.533Z,12.23
2022-09-23T19:14:44.700Z,12.30
2022-09-23T19:17:31.268Z,12.20
2022-09-23T19:20:17.816Z,12.52
2022-09-23T19:23:04.132Z,12.51
2022-09-23T19:25:50.593Z,12.51
2022-09-23T19:28:37.505Z,12.39
2022-09-23T19:31:25.500Z,12.36
2022-09-23T19:34:17.785Z,12.15
2022-09-23T19:37:04.510Z,12.04
2022-09-23T19:39:50.998Z,11.66
2022-09-23T19:42:38.172Z,11.98
2022-09-23T19:45:25.147Z,12.03
2022-09-23T19:48:11.753Z,11.99
2022-09-23T19:50:58.288Z,11.91
2022-09-23T19:53:45.558Z,11.85
2022-09-23T19:56:32.740Z,11.62
2022-09-23T19:59:19.476Z,11.65
2022-09-23T20:02:06.050Z,11.64
2022-09-23T20:04:52.897Z,11.57
2022-09-23T20:07:41.532Z,11.70
2022-09-23T20:10:27.736Z,11.52
2022-09-23T20:13:15.004Z,10.96
2022-09-23T20:16:01.553Z,11.07
2022-09-23T20:18:52.029Z,11.42
2022-09-23T20:21:38.394Z,11.03
2022-09-23T20:24:24.713Z,10.83
2022-09-23T20:27:11.215Z,11.28
2022-09-23T20:30:00.806Z,11.22
2022-09-23T20:32:49.991Z,11.25
2022-09-23T20:35:36.368Z,11.19
2022-09-23T20:38:22.872Z,10.75
2022-09-23T20:41:09.415Z,10.95
2022-09-23T20:43:58.845Z,10.91
2022-09-23T20:46:48.849Z,10.89
2022-09-23T20:49:36.461Z,10.44
2022-09-23T20:52:22.896Z,10.88
2022-09-23T20:55:09.707Z,10.46
2022-09-23T20:57:56.140Z,10.88
2022-09-23T21:00:44.486Z,10.74
2022-09-23T21:03:34.892Z,10.25
2022-09-23T21:06:25.143Z,10.73
2022-09-23T21:09:11.349Z,10.67
2022-09-23T21:11:57.878Z,10.59
2022-09-23T21:14:44.113Z,10.34
2022-09-23T21:17:30.525Z,10.54
2022-09-23T21:20:16.926Z,10.61
2022-09-23T21:23:03.247Z,10.21
2022-09-23T21:25:49.220Z,10.21
2022-09-23T21:28:42.995Z,10.22
2022-09-23T21:31:34.560Z,10.14
2022-09-23T21:34:20.920Z,9.87
2022-09-23T21:37:08.365Z,10.20
2022-09-23T21:40:13.409Z,10.36
2022-09-23T21:43:00.307Z,10.25
2022-09-23T21:45:47.424Z,10.42
2022-09-23T21:48:35.545Z,9.11
2022-09-23T21:51:25.008Z,8.89
2022-09-23T21:54:16.149Z,9.56
2022-09-23T21:57:02.754Z,9.82
2022-09-23T21:59:48.477Z,9.90
2022-09-23T22:02:35.554Z,9.82
2022-09-23T22:05:21.970Z,8.70
2022-09-23T22:08:09.114Z,9.22
2022-09-23T22:10:56.098Z,9.16
2022-09-23T22:13:42.541Z,8.59
2022-09-23T22:16:29.664Z,9.33
2022-09-23T22:19:15.668Z,9.55
2022-09-23T22:22:06.886Z,9.37
2022-09-23T22:24:53.211Z,9.61
2022-09-23T22:27:59.550Z,8.77
2022-09-23T22:31:04.077Z,9.58
2022-09-23T22:33:50.583Z,8.14
2022-09-23T22:36:36.971Z,7.49
2022-09-23T22:39:24.351Z,8.06
2022-09-23T22:42:11.155Z,8.80
2022-09-23T22:44:57.629Z,8.71
2022-09-23T22:47:45.551Z,8.11
2022-09-23T22:50:32.237Z,8.99
2022-09-23T22:53:18.816Z,9.31
2022-09-23T22:56:05.039Z,9.36
2022-09-23T22:58:51.370Z,9.35
2022-09-23T23:01:37.816Z,9.22
2022-09-23T23:04:24.203Z,9.17
2022-09-23T23:07:13.356Z,9.13
2022-09-23T23:09:59.560Z,9.01
2022-09-23T23:12:46.941Z,9.00
2022-09-23T23:15:32.856Z,8.84
2022-09-23T23:18:19.176Z,9.08
2022-09-23T23:21:07.186Z,9.15
2022-09-23T23:23:53.635Z,8.49
2022-09-23T23:26:39.472Z,8.78
2022-09-23T23:29:25.787Z,8.86
2022-09-23T23:32:11.895Z,9.12
2022-09-23T23:34:58.093Z,9.10
2022-09-23T23:37:44.463Z,9.15
2022-09-23T23:40:30.879Z,8.96
2022-09-23T23:43:19.020Z,8.42
2022-09-23T23:46:07.491Z,7.68
2022-09-23T23:48:54.466Z,7.84
2022-09-23T23:51:41.215Z,8.15
2022-09-23T23:54:27.579Z,8.58
2022-09-23T23:57:13.846Z,8.78
